Time;durP1;ratioP1;P1;durP2;ratioP2;P2;SDS_P1;SDS_P2;PMS_P1;PMS_P2;Temp;Humidity;BMP_temperature;BMP_pressure;BME280_temperature;BME280_humidity;BME280_pressure;Samples;Min_cycle;Max_cycle;Signal;HPM_P1;HPM_P2
2023/07/15 00:00:01;;;;;;;;;;;;;;;24.58;100.00;99735.78;5070296;28;19917;-77
2023/07/15 00:02:37;;;;;;;;;;;;;;;24.59;100.00;99742.00;5069890;28;19916;-77
2023/07/15 00:05:03;;;;;;;;;;;;;;;24.61;100.00;99739.91;5070397;28;19916;-78
2023/07/15 00:07:28;;;;;;;;;;;;;;;24.58;100.00;99740.38;5070600;28;19916;-78
2023/07/15 00:09:53;;;;;;;;;;;;;;;24.47;100.00;99733.88;5069501;28;19970;-78
2023/07/15 00:12:19;;;;;;;;;;;;;;;24.32;100.00;99739.69;5070704;28;19920;-76
2023/07/15 00:14:44;;;;;;;;;;;;;;;24.17;100.00;99739.22;5070662;28;19946;-77
2023/07/15 00:17:10;;;;;;;;;;;;;;;24.15;100.00;99735.91;5070316;28;20399;-77
2023/07/15 00:19:35;;;;;;;;;;;;;;;24.16;100.00;99744.81;5070469;28;19917;-78
2023/07/15 00:22:00;;;;;;;;;;;;;;;24.16;100.00;99742.94;5068740;28;19946;-77
2023/07/15 00:24:26;;;;;;;;;;;;;;;24.14;100.00;99745.06;5070320;28;19917;-76
2023/07/15 00:26:52;;;;;;;;;;;;;;;24.09;100.00;99743.03;5070298;28;19978;-77
2023/07/15 00:29:18;;;;;;;;;;;;;;;24.17;100.00;99744.59;5070481;28;19916;-78
2023/07/15 00:31:43;;;;;;;;;;;;;;;24.07;100.00;99753.22;5066528;28;19939;-78
2023/07/15 00:34:09;;;;;;;;;;;;;;;24.11;100.00;99752.78;5069815;28;20011;-78
2023/07/15 00:36:35;;;;;;;;;;;;;;;24.09;100.00;99761.09;5070251;28;19924;-78
2023/07/15 00:39:00;;;;;;;;;;;;;;;24.11;100.00;99758.16;5068514;28;20019;-78
2023/07/15 00:41:30;;;;;;;;;;;;;;;24.08;100.00;99752.19;5069976;28;19965;-78
2023/07/15 00:44:06;;;;;;;;;;;;;;;23.84;100.00;99761.16;5069728;28;20294;-78
2023/07/15 00:46:43;;;;;;;12.85;11.55;;;;;;;23.71;100.00;99755.91;5069959;28;19916;-78
2023/07/15 00:49:17;;;;;;;12.95;11.57;;;;;;;23.40;100.00;99753.28;5068983;28;20088;-78
2023/07/15 00:51:46;;;;;;;12.60;11.27;;;;;;;23.35;100.00;99745.03;5064686;28;20120;-77
2023/07/15 00:54:13;;;;;;;13.48;12.15;;;;;;;23.18;100.00;99750.97;5068430;28;20036;-77
2023/07/15 00:56:40;;;;;;;;;;;;;;;23.13;100.00;99748.13;5069996;28;20112;-77
2023/07/15 00:59:06;;;;;;;;;;;;;;;23.08;100.00;99750.66;5065436;28;19924;-78
2023/07/15 01:01:32;;;;;;;;;;;;;;;23.20;100.00;99738.13;5062561;28;19969;-78
2023/07/15 01:03:58;;;;;;;;;;;;;;;23.34;100.00;99740.69;5067663;28;19924;-76
2023/07/15 01:06:24;;;;;;;;;;;;;;;23.46;100.00;99741.63;5065129;28;19916;-78
2023/07/15 01:08:49;;;;;;;;;;;;;;;23.51;100.00;99733.72;5069947;28;20376;-78
2023/07/15 01:11:14;;;;;;;;;;;;;;;23.60;100.00;99737.78;5069824;28;19920;-77
2023/07/15 01:13:40;;;;;;;;;;;;;;;23.62;100.00;99733.00;5066607;28;19916;-78
2023/07/15 01:16:05;;;;;;;;;;;;;;;23.63;100.00;99734.63;5069755;28;19916;-78
2023/07/15 01:18:31;;;;;;;;;;;;;;;23.68;100.00;99741.00;5069485;28;19916;-77
2023/07/15 01:21:00;;;;;;;;;;;;;;;23.71;100.00;99745.13;5063940;28;19928;-78
2023/07/15 01:23:27;;;;;;;;;;;;;;;23.73;100.00;99734.97;5065493;28;19916;-78
2023/07/15 01:25:54;;;;;;;;;;;;;;;23.68;100.00;99740.19;5068825;28;20275;-78
2023/07/15 01:28:19;;;;;;;;;;;;;;;23.65;100.00;99746.84;5060208;28;19946;-78
2023/07/15 01:30:44;;;;;;;;;;;;;;;23.65;100.00;99743.34;5069909;28;20293;-77
2023/07/15 01:33:10;;;;;;;;;;;;;;;23.56;100.00;99742.78;5060587;28;20343;-78
2023/07/15 01:35:36;;;;;;;;;;;;;;;23.50;100.00;99748.25;5067472;28;19991;-78
2023/07/15 01:38:03;;;;;;;;;;;;;;;23.53;100.00;99747.81;5068897;28;19931;-78
2023/07/15 01:40:29;;;;;;;;;;;;;;;23.55;100.00;99741.16;5063883;28;20022;-77
2023/07/15 01:42:54;;;;;;;;;;;;;;;23.58;100.00;99747.94;5067878;28;20383;-77
2023/07/15 01:45:20;;;;;;;;;;;;;;;23.61;100.00;99744.84;5069612;28;20007;-77
2023/07/15 01:47:45;;;;;;;;;;;;;;;23.61;100.00;99744.84;5069636;28;19981;-77
2023/07/15 01:50:10;;;;;;;;;;;;;;;23.66;100.00;99739.59;5069019;28;19916;-77
2023/07/15 01:52:35;;;;;;;;;;;;;;;23.67;100.00;99736.69;5063736;28;19923;-77
2023/07/15 01:55:01;;;;;;;;;;;;;;;23.68;100.00;99727.53;5065617;28;19998;-76
2023/07/15 01:57:26;;;;;;;;;;;;;;;23.60;100.00;99730.53;5063673;28;19923;-77
2023/07/15 01:59:57;;;;;;;;;;;;;;;23.50;100.00;99732.09;5067654;28;19935;-77
2023/07/15 02:02:25;;;;;;;;;;;;;;;23.26;100.00;99726.50;5069098;28;20007;-76
2023/07/15 02:04:50;;;;;;;;;;;;;;;23.28;100.00;99724.38;5068241;28;19913;-77
2023/07/15 02:07:16;;;;;;;;;;;;;;;23.34;100.00;99724.53;5068796;28;20386;-78
2023/07/15 02:09:41;;;;;;;;;;;;;;;23.40;100.00;99726.34;5069361;28;19917;-78
2023/07/15 02:12:07;;;;;;;;;;;;;;;23.46;100.00;99720.06;5064796;28;20415;-78
2023/07/15 02:14:32;;;;;;;;;;;;;;;23.48;100.00;99729.63;5069247;28;19917;-77
2023/07/15 02:16:58;;;;;;;;;;;;;;;23.40;100.00;99726.34;5063533;28;19923;-77
2023/07/15 02:19:25;;;;;;;;;;;;;;;23.44;100.00;99722.19;5063932;28;19964;-77
2023/07/15 02:21:51;;;;;;;;;;;;;;;23.44;100.00;99720.31;5068954;28;20249;-77
2023/07/15 02:24:16;;;;;;;;;;;;;;;23.52;100.00;99721.91;5063266;28;19924;-77
2023/07/15 02:26:41;;;;;;;;;;;;;;;23.58;100.00;99729.09;5071245;28;19928;-77
2023/07/15 02:29:07;;;;;;;;;;;;;;;23.64;100.00;99733.59;5067302;28;20287;-77
2023/07/15 02:31:34;;;;;;;;;;;;;;;23.64;100.00;99728.22;5067380;28;19920;-77
2023/07/15 02:33:59;;;;;;;;;;;;;;;23.67;100.00;99719.69;5070938;28;19916;-76
2023/07/15 02:36:25;;;;;;;;;;;;;;;23.68;100.00;99713.22;5070201;28;19973;-77
2023/07/15 02:38:50;;;;;;;;;;;;;;;23.70;100.00;99715.72;5072099;28;19916;-77
2023/07/15 02:41:16;;;;;;;;;;;;;;;23.71;100.00;99723.56;5062670;28;20241;-77
2023/07/15 02:43:42;;;;;;;;;;;;;;;23.69;100.00;99720.28;5067130;28;19919;-77
2023/07/15 02:46:07;;;;;;;;;;;;;;;23.67;100.00;99717.00;5072292;28;19927;-77
2023/07/15 02:48:32;;;;;;;;;;;;;;;23.65;100.00;99713.69;5066940;28;20152;-76
2023/07/15 02:50:58;;;;;;;;;;;;;;;23.63;100.00;99715.78;5072441;28;19920;-78
2023/07/15 02:53:23;;;;;;;;;;;;;;;23.67;100.00;99717.00;5071708;28;19917;-77
2023/07/15 02:55:52;;;;;;;;;;;;;;;23.67;100.00;99715.13;5069807;28;19916;-78
2023/07/15 02:58:18;;;;;;;;;;;;;;;23.68;100.00;99713.22;5066422;28;19927;-78
2023/07/15 03:00:44;;;;;;;;;;;;;;;23.66;100.00;99715.34;5072081;28;20384;-77
2023/07/15 03:03:12;;;;;;;;;;;;;;;23.62;100.00;99722.25;5070534;28;19927;-78
2023/07/15 03:05:44;;;;;;;;;;;;;;;23.51;100.00;99722.94;5070628;28;20354;-78
2023/07/15 03:08:09;;;;;;;;;;;;;;;23.38;100.00;99733.84;5071592;28;19928;-78
2023/07/15 03:10:35;;;;;;;;;;;;;;;23.35;100.00;99726.19;5071218;28;20119;-78
2023/07/15 03:13:01;;;;;;;;;;;;;;;23.22;100.00;99722.56;5071150;28;19956;-79
2023/07/15 03:15:26;;;;;;;;;;;;;;;23.14;100.00;99722.03;5071654;28;19951;-78
2023/07/15 03:17:52;;;;;;;;;;;;;;;23.10;100.00;99716.25;5071924;28;20291;-77
2023/07/15 03:20:20;;;;;;;;;;;;;;;23.10;100.00;99723.50;5071039;28;19916;-78
2023/07/15 03:22:51;;;;;;;;;;;;;;;23.06;100.00;99714.22;5072237;28;20011;-77
2023/07/15 03:25:16;;;;;;;;;;;;;;;23.01;100.00;99712.19;5068440;28;19917;-79
2023/07/15 03:27:42;;;;;;;;;;;;;;;23.00;100.00;99710.53;5071655;28;20007;-78
2023/07/15 03:30:08;;;;;;;;;;;;;;;23.02;100.00;99713.84;5071766;28;19916;-78
2023/07/15 03:32:35;;;;;;;;;;;;;;;23.06;100.00;99715.06;5071372;28;19922;-77
2023/07/15 03:35:01;;;;;;;;;;;;;;;23.05;100.00;99718.78;5071450;28;19998;-77
2023/07/15 03:37:26;;;;;;;;;;;;;;;23.11;100.00;99717.91;5070600;28;19917;-77
2023/07/15 03:39:52;;;;;;;;;;;;;;;23.10;100.00;99724.31;5070833;28;19916;-77
2023/07/15 03:42:17;;;;;;;;;;;;;;;23.09;100.00;99725.38;5069547;28;19924;-74
2023/07/15 03:44:43;;;;;;;;;;;;;;;23.08;100.00;99737.19;5071298;28;19917;-77
2023/07/15 03:47:08;;;;;;;;;;;;;;;23.08;100.00;99726.44;5071177;28;19916;-78
2023/07/15 03:49:33;;;;;;;;;;;;;;;23.08;100.00;99718.34;5071479;28;19923;-77
2023/07/15 03:51:59;;;;;;;;;;;;;;;23.04;100.00;99722.50;5070886;28;19916;-77
2023/07/15 03:54:24;;;;;;;;;;;;;;;22.81;100.00;99727.66;5071070;28;19978;-77
2023/07/15 03:56:49;;;;;;;;;;;;;;;22.68;100.00;99727.72;5070929;28;19958;-76
2023/07/15 03:59:14;;;;;;;;;;;;;;;22.57;100.00;99725.69;5071042;28;19923;-77
2023/07/15 04:01:40;;;;;;;;;;;;;;;22.61;100.00;99718.88;5071116;28;19916;-79
2023/07/15 04:04:08;;;;;;;;;;;;;;;22.65;100.00;99712.84;5070909;28;19924;-77
2023/07/15 04:06:36;;;;;;;;;;;;;;;22.68;100.00;99712.38;5070351;28;19920;-79
2023/07/15 04:09:03;;;;;;;;;;;;;;;22.71;100.00;99706.59;5069490;28;19956;-79
2023/07/15 04:11:30;;;;;;;;;;;;;;;22.71;100.00;99705.75;5070575;28;19912;-80
2023/07/15 04:13:56;;;;;;;;;;;;;;;22.75;100.00;99713.22;5070741;28;20280;-79
2023/07/15 04:16:21;;;;;;;;;;;;;;;22.76;100.00;99708.66;5070696;28;19916;-79
2023/07/15 04:18:46;;;;;;;;;;;;;;;22.60;100.00;99714.53;5070847;28;19919;-79
2023/07/15 04:21:12;;;;;;;;;;;;;;;22.55;100.00;99717.03;5070149;28;19920;-80
2023/07/15 04:23:37;;;;;;;18.38;13.30;;;;;;;22.49;100.00;99712.53;5070087;28;19924;-79
2023/07/15 04:26:02;;;;;;;16.30;13.90;;;;;;;22.46;100.00;99719.97;5069124;28;20033;-79
2023/07/15 04:28:28;;;;;;;14.10;12.70;;;;;;;22.48;100.00;99716.25;5069839;28;20480;-80
2023/07/15 04:30:53;;;;;;;17.10;13.85;;;;;;;22.55;100.00;99717.03;5069362;28;20028;-79
2023/07/15 04:33:19;;;;;;;15.02;13.52;;;;;;;22.58;100.00;99716.59;5070172;28;20105;-79
2023/07/15 04:35:44;;;;;;;15.50;13.20;;;;;;;22.53;100.00;99724.50;5070179;28;20060;-80
2023/07/15 04:38:10;;;;;;;;;;;;;;;22.50;100.00;99719.56;5070145;28;20037;-79
2023/07/15 04:40:36;;;;;;;;;;;;;;;22.48;100.00;99727.00;5070458;28;19933;-80
2023/07/15 04:43:01;;;;;;;;;;;;;;;22.39;100.00;99724.56;5069906;28;19921;-80
2023/07/15 04:45:27;;;;;;;;;;;;;;;22.32;100.00;99720.28;5064902;28;20296;-80
2023/07/15 04:47:52;;;;;;;;;;;;;;;22.40;100.00;99720.84;5070199;28;19974;-79
2023/07/15 04:50:17;;;;;;;;;;;;;;;22.45;100.00;99717.50;5070965;28;19974;-81
2023/07/15 04:52:42;;;;;;;;;;;;;;;22.49;100.00;99709.84;5070495;28;19920;-80
2023/07/15 04:55:09;;;;;;;;;;;;;;;22.56;100.00;99719.50;5070182;28;19932;-80
2023/07/15 04:57:34;;;;;;;;;;;;;;;22.67;100.00;99726.06;5070385;28;19952;-80
2023/07/15 04:59:59;;;;;;;;;;;;;;;22.61;100.00;99721.56;5069664;28;19927;-80
2023/07/15 05:02:25;;;;;;;;;;;;;;;22.49;100.00;99717.91;5070041;28;19931;-80
2023/07/15 05:04:50;;;;;;;;;;;;;;;22.37;100.00;99726.66;5069881;28;19983;-80
2023/07/15 05:07:15;;;;;;;;;;;;;;;22.21;100.00;99729.00;5069887;28;20448;-79
2023/07/15 05:09:40;;;;;;;;;;;;;;;22.20;100.00;99725.50;5070129;28;19926;-79
2023/07/15 05:12:06;;;;;;;;;;;;;;;22.29;100.00;99724.22;5069757;28;19958;-80
2023/07/15 05:14:32;;;;;;;;;;;;;;;22.40;100.00;99728.06;5069553;28;19924;-80
2023/07/15 05:16:58;;;;;;;;;;;;;;;22.48;100.00;99732.38;5069419;28;19921;-80
2023/07/15 05:19:24;;;;;;;;;;;;;;;22.56;100.00;99729.47;5070308;28;20421;-80
2023/07/15 05:21:49;;;;;;;;;;;;;;;22.64;100.00;99731.88;5069928;28;19920;-79
2023/07/15 05:24:15;;;;;;;;;;;;;;;22.71;100.00;99727.28;5070057;28;19924;-79
2023/07/15 05:26:40;;;;;;;;;;;;;;;22.76;100.00;99725.63;5069032;28;20007;-79
2023/07/15 05:29:07;;;;;;;;;;;;;;;22.77;100.00;99731.81;5069244;28;19959;-80
2023/07/15 05:31:33;;;;;;;;;;;;;;;22.64;100.00;99731.88;5069532;28;19927;-80
2023/07/15 05:33:58;;;;;;;;;;;;;;;22.64;100.00;99734.56;5069556;28;19920;-79
2023/07/15 05:36:23;;;;;;;;;;;;;;;22.67;100.00;99728.78;5069495;28;19943;-80
2023/07/15 05:38:48;;;;;;;;;;;;;;;22.70;100.00;99737.22;5069561;28;19928;-80
2023/07/15 05:41:14;;;;;;;;;;;;;;;22.75;100.00;99734.72;5160782;22;19932;-85
2023/07/15 05:43:39;;;;;;;;;;;;;;;22.73;100.00;99736.84;5069923;28;19920;-85
2023/07/15 05:46:04;;;;;;;;;;;;;;;22.80;100.00;99742.97;5069077;28;19943;-85
2023/07/15 05:48:30;;;;;;;;;;;;;;;22.89;100.00;99738.16;5071305;28;19931;-85
2023/07/15 05:50:55;;;;;;;;;;;;;;;22.89;100.00;99734.63;5070644;28;19917;-85
2023/07/15 05:53:20;;;;;;;;;;;;;;;22.96;100.00;99741.63;5064968;28;19931;-86
2023/07/15 05:55:46;;;;;;;;;;;;;;;23.07;100.00;99738.22;5069956;28;19974;-85
2023/07/15 05:58:11;;;;;;;;;;;;;;;23.06;100.00;99747.34;5068638;28;19924;-85
2023/07/15 06:00:37;;;;;;;;;;;;;;;23.10;100.00;99736.94;5072718;28;19921;-84
2023/07/15 06:03:03;;;;;;;;;;;;;;;23.15;100.00;99746.03;5074283;28;19980;-85
2023/07/15 06:05:29;;;;;;;;;;;;;;;23.23;100.00;99747.63;5074613;28;20434;-87
2023/07/15 06:07:54;;;;;;;;;;;;;;;23.24;100.00;99750.09;5075012;28;19926;-86
2023/07/15 06:10:19;;;;;;;;;;;;;;;23.31;100.00;99755.44;5078832;28;20337;-84
2023/07/15 06:12:44;;;;;;;;;;;;;;;23.35;100.00;99751.25;5078218;28;19925;-86
2023/07/15 06:15:10;;;;;;;;;;;;;;;23.37;100.00;99751.84;5079528;28;19928;-86
2023/07/15 06:17:35;;;;;;;;;;;;;;;23.37;100.00;99759.13;5077729;28;19928;-84
2023/07/15 06:20:00;;;;;;;;;;;;;;;23.44;100.00;99755.31;5074296;28;19921;-84
2023/07/15 06:22:26;;;;;;;;;;;;;;;23.50;100.00;99759.03;5075473;28;19920;-85
2023/07/15 06:24:51;;;;;;;;;;;;;;;23.48;100.00;99750.34;5072834;28;19921;-85
2023/07/15 06:27:16;;;;;;;;;;;;;;;23.45;100.00;99758.81;5074312;28;20036;-86
2023/07/15 06:29:42;;;;;;;;;;;;;;;23.48;100.00;99761.13;5073987;28;20395;-86
2023/07/15 06:32:07;;;;;;;;;;;;;;;23.57;100.00;99749.81;5073922;28;19931;-87
2023/07/15 06:34:33;;;;;;;;;;;;;;;23.65;100.00;99751.41;5073782;28;19924;-86
2023/07/15 06:36:58;;;;;;;;;;;;;;;23.69;100.00;99752.59;5073801;28;19924;-85
2023/07/15 06:39:24;;;;;;;;;;;;;;;23.74;100.00;99750.06;5074530;28;19927;-85
2023/07/15 06:41:50;;;;;;;;;;;;;;;23.83;100.00;99748.75;5079800;28;19920;-85
2023/07/15 06:44:15;;;;;;;;;;;;;;;23.89;100.00;99749.72;5081252;28;19967;-86
2023/07/15 06:46:41;;;;;;;;;;;;;;;23.96;100.00;99754.00;5082344;28;19928;-87
2023/07/15 06:49:06;;;;;;;;;;;;;;;24.00;100.00;99755.19;5081988;28;19971;-86
2023/07/15 06:51:31;;;;;;;;;;;;;;;24.09;100.00;99751.13;5081923;28;19921;-86
2023/07/15 06:53:56;;;;;;;;;;;;;;;24.15;100.00;99751.28;5079298;28;19928;-87
2023/07/15 06:56:22;;;;;;;;;;;;;;;24.25;100.00;99751.59;5088499;28;20333;-86
2023/07/15 06:58:47;;;;;;;;;;;;;;;24.31;100.00;99745.31;5094490;28;19931;-86
2023/07/15 07:01:13;;;;;;;;;;;;;;;24.39;100.00;99745.78;5096740;28;19943;-87
2023/07/15 07:03:38;;;;;;;;;;;;;;;24.51;100.00;99745.03;5096351;28;19920;-88
2023/07/15 07:06:03;;;;;;;;;;;;;;;24.61;100.00;99739.91;5095773;28;19925;-87
2023/07/15 07:08:29;;;;;;;;;;;;;;;24.60;100.00;99744.50;5095626;28;19984;-86
2023/07/15 07:10:54;;;;;;;;;;;;;;;24.62;100.00;99752.38;5081520;28;20419;-85
2023/07/15 07:13:19;;;;;;;;;;;;;;;24.72;100.00;99747.22;5069480;28;19946;-86
2023/07/15 07:15:45;;;;;;;;;;;;;;;24.76;100.00;99754.63;5075414;28;20022;-86
2023/07/15 07:18:11;;;;;;;;;;;;;;;24.86;100.00;99754.88;5064848;28;19970;-86
2023/07/15 07:20:37;;;;;;;;;;;;;;;24.96;100.00;99758.94;5073967;28;19921;-84
2023/07/15 07:23:03;;;;;;;;;;;;;;;25.00;100.00;99755.56;5073235;28;19921;-87
2023/07/15 07:25:28;;;;;;;;;;;;;;;25.10;100.00;99754.97;5072421;28;19986;-82
2023/07/15 07:27:53;;;;;;;;;;;;;;;25.15;100.00;99752.44;5069534;28;19920;-86
2023/07/15 07:30:19;;;;;;;;;;;;;;;25.23;100.00;99752.06;5072479;28;19924;-85
2023/07/15 07:32:44;;;;;;;;;;;;;;;25.28;100.00;99752.19;5066927;28;19936;-85
2023/07/15 07:35:09;;;;;;;;;;;;;;;25.28;100.00;99753.00;5071719;28;19928;-86
2023/07/15 07:37:35;;;;;;;;;;;;;;;25.33;100.00;99754.22;5072138;28;21195;-86
2023/07/15 07:40:00;;;;;;;;;;;;;;;25.42;100.00;99753.63;5071901;28;20371;-86
2023/07/15 07:42:26;;;;;;;;;;;;;;;25.52;100.00;99750.31;5071843;28;19921;-85
2023/07/15 07:44:51;;;;;;;;;;;;;;;25.58;100.00;99747.53;5071279;28;20367;-86
2023/07/15 07:47:16;;;;;;;;;;;;;;;25.66;100.00;99749.88;5071466;28;19920;-87
2023/07/15 07:49:42;;;;;;;;;;;;;;;25.73;100.00;99748.94;5071722;28;19927;-86
2023/07/15 07:52:08;;;;;;;;;;;;;;;25.77;100.00;99747.41;5071260;28;19924;-87
2023/07/15 07:54:33;;;;;;;;;;;;;;;25.83;100.00;99743.75;5071453;28;19962;-86
2023/07/15 07:56:58;;;;;;;;;;;;;;;25.90;100.00;99749.88;5071195;28;19999;-86
2023/07/15 07:59:24;;;;;;;;;;;;;;;25.95;100.00;99742.69;5071574;28;19956;-84
2023/07/15 08:01:49;;;;;;;;;;;;;;;26.03;100.00;99744.19;5071844;28;20040;-86
2023/07/15 08:04:15;;;;;;;;;;;;;;;26.11;100.00;99741.09;5089027;28;19945;-84
2023/07/15 08:06:40;;;;;;;8.13;5.63;;;;;;;26.20;100.00;99744.28;5074679;28;19966;-85
2023/07/15 08:09:07;;;;;;;8.88;6.78;;;;;;;26.16;100.00;99741.22;5070667;28;20033;-85
2023/07/15 08:11:32;;;;;;;;;;;;;;;26.21;100.00;99733.22;5069722;28;19920;-86
2023/07/15 08:13:57;;;;;;;;;;;;;;;26.23;100.00;99744.63;5070443;28;19916;-86
2023/07/15 08:16:27;;;;;;;8.35;6.95;;;;;;;26.23;100.00;99750.03;5071140;28;19923;-85
2023/07/15 08:18:52;;;;;;;;;;;;;;;26.27;100.00;99753.09;5070861;28;19917;-86
2023/07/15 08:21:17;;;;;;;;;;;;;;;26.28;100.00;99752.03;5070811;28;19977;-86
2023/07/15 08:23:43;;;;;;;;;;;;;;;26.34;100.00;99749.19;5070000;28;20054;-86
2023/07/15 08:26:08;;;;;;;;;;;;;;;26.36;100.00;99749.78;5070007;28;19927;-86
2023/07/15 08:28:33;;;;;;;;;;;;;;;26.40;100.00;99750.94;5070477;28;19916;-86
2023/07/15 08:30:59;;;;;;;;;;;;;;;26.46;100.00;99744.56;5069730;28;19983;-85
2023/07/15 08:33:24;;;;;;;;;;;;;;;26.54;100.00;99756.06;5068634;28;20248;-84
2023/07/15 08:35:49;;;;;;;;;;;;;;;26.59;100.00;99756.16;5064501;28;19916;-85
2023/07/15 08:38:14;;;;;;;;;;;;;;;26.64;100.00;99758.94;5069927;28;19987;-86
2023/07/15 08:40:41;;;;;;;;;;;;;;;26.71;100.00;99748.81;5069748;28;19923;-86
2023/07/15 08:43:06;;;;;;;;;;;;;;;26.74;100.00;99745.63;5066047;28;20360;-86
2023/07/15 08:45:34;;;;;;;;;;;;;;;26.73;100.00;99749.38;5070117;28;19960;-85
2023/07/15 08:48:00;;;;;;;;;;;;;;;26.78;100.00;99755.72;5068409;28;19955;-86
2023/07/15 08:50:27;;;;;;;;;;;;;;;26.86;100.00;99749.09;5070362;28;19981;-86
2023/07/15 08:52:52;;;;;;;;;;;;;;;26.92;100.00;99753.53;5067115;28;20363;-87
2023/07/15 08:55:18;;;;;;;;;;;;;;;27.00;100.00;99755.84;5069545;28;19916;-86
2023/07/15 08:57:44;;;;;;;;;;;;;;;27.07;100.00;99748.41;5069766;28;19916;-85
2023/07/15 09:00:10;;;;;;;;;;;;;;;27.14;100.00;99751.78;5069007;28;20391;-86
2023/07/15 09:02:37;;;;;;;;;;;;;;;27.21;100.00;99752.44;5069140;28;19917;-86
2023/07/15 09:05:06;;;;;;;;;;;;;;;27.29;100.00;99738.47;5069828;28;19916;-86
2023/07/15 09:07:32;;;;;;;;;;;;;;;27.35;100.00;99741.25;5069943;28;19923;-87
2023/07/15 09:10:04;;;;;;;;;;;;;;;27.41;100.00;99734.84;5069361;28;19916;-87
2023/07/15 09:12:29;;;;;;;;;;;;;;;27.48;100.00;99738.19;5069863;28;20026;-87
2023/07/15 09:14:54;;;;;;;;;;;;;;;27.48;100.00;99741.72;5069636;28;19975;-87
2023/07/15 09:17:20;;;;;;;;;;;;;;;27.49;100.00;99737.13;5069979;28;19969;-86
2023/07/15 09:19:46;;;;;;;;;;;;;;;27.53;100.00;99735.59;5070269;28;20006;-87
2023/07/15 09:22:12;;;;;;;;;;;;;;;27.54;100.00;99734.53;5065775;28;20278;-86
2023/07/15 09:24:38;;;;;;;;;;;;;;;27.54;100.00;99729.94;5069387;28;20009;-86
2023/07/15 09:27:03;;;;;;;;;;;;;;;27.59;100.00;99731.88;5068113;28;19917;-86
2023/07/15 09:29:29;;;;;;;;;;;;;;;27.65;100.00;99730.88;5069245;28;19924;-86
2023/07/15 09:31:55;;;;;;;;;;;;;;;27.72;100.00;99720.69;5069603;28;19917;-85
2023/07/15 09:34:20;;;;;;;;;;;;;;;27.80;100.00;99733.84;5069967;28;19923;-85
2023/07/15 09:36:46;;;;;;;;;;;;;;;27.87;100.00;99726.31;5073752;28;19917;-84
2023/07/15 09:39:12;;;;;;;;;;;;;;;27.94;100.00;99718.81;5069616;28;20335;-85
2023/07/15 09:41:38;;;;;;;;;;;;;;;28.02;100.00;99728.41;5073507;28;20102;-84
2023/07/15 09:44:03;;;;;;;;;;;;;;;28.09;100.00;99742.63;5073112;28;20007;-86
2023/07/15 09:46:29;;;;;;;;;;;;;;;28.11;100.00;99743.97;5072357;28;20019;-86
2023/07/15 09:48:56;;;;;;;;;;;;;;;28.17;100.00;99741.34;5073207;28;19916;-86
2023/07/15 09:51:21;;;;;;;;;;;;;;;28.23;100.00;99743.06;5073749;28;20247;-86
2023/07/15 09:53:50;;;;;;;;;;;;;;;28.26;99.72;99742.56;5073335;28;19916;-85
2023/07/15 09:56:23;;;;;;;;;;;;;;;28.29;98.21;99742.03;5073272;28;19924;-85
2023/07/15 09:58:50;;;;;;;;;;;;;;;28.33;97.88;99743.19;5069738;28;19920;-86
2023/07/15 10:01:34;;;;;;;;;;;;;;;28.37;96.03;99738.91;5073351;28;19917;-85
2023/07/15 10:04:17;;;;;;;;;;;;;;;28.45;93.54;99743.88;5071647;28;19920;-85
2023/07/15 10:06:43;;;;;;;;;;;;;;;28.48;91.70;99748.78;5069593;28;19938;-86
2023/07/15 10:09:09;;;;;;;;;;;;;;;28.46;91.65;99743.59;5073065;28;19927;-86
2023/07/15 10:11:35;;;;;;;;;;;;;;;28.52;92.75;99739.06;5067536;28;19916;-86
2023/07/15 10:14:00;;;;;;;;;;;;;;;28.59;93.79;99731.53;5072360;28;19917;-86
2023/07/15 10:16:26;;;;;;;;;;;;;;;28.68;92.61;99732.72;5073119;28;19923;-86
2023/07/15 10:18:53;;;;;;;;;;;;;;;28.81;95.28;99732.31;5071890;28;19916;-85
2023/07/15 10:21:19;;;;;;;;;;;;;;;28.86;95.03;99726.13;5073156;28;19920;-85
2023/07/15 10:23:44;;;;;;;;;;;;;;;28.89;94.35;99726.44;5072938;28;19924;-84
2023/07/15 10:26:10;;;;;;;;;;;;;;;28.94;92.02;99719.38;5071407;28;19920;-85
2023/07/15 10:28:39;;;;;;;;;;;;;;;28.88;89.42;99721.25;5083908;28;20287;-85
2023/07/15 10:31:14;;;;;;;;;;;;;;;28.86;90.67;99720.72;5072089;28;20371;-86
2023/07/15 10:33:54;;;;;;;;;;;;;;;28.90;91.64;99716.38;5072667;28;20064;-86
2023/07/15 10:36:35;;;;;;;;;;;;;;;28.95;92.44;99710.16;5065176;28;20283;-85
2023/07/15 10:39:27;;;;;;;;;;;;;;;29.02;93.20;99705.34;5072622;28;19995;-85
2023/07/15 10:41:53;;;;;;;;;;;;;;;29.09;93.98;99709.50;5067433;28;19967;-86
2023/07/15 10:44:25;;;;;;;9.05;4.32;;;;;;;29.19;91.27;99708.72;5072228;28;20513;-85
2023/07/15 10:47:00;;;;;;;4.72;3.95;;;;;;;29.28;88.76;99701.72;5071770;28;20421;-85
2023/07/15 10:49:25;;;;;;;8.57;4.38;;;;;;;29.34;88.53;99695.28;5072131;28;20036;-86
2023/07/15 10:51:54;;;;;;;4.68;4.03;;;;;;;29.36;88.34;99693.13;5071593;28;20086;-85
2023/07/15 10:54:22;;;;;;;8.18;4.50;;;;;;;29.44;87.76;99698.09;5070383;28;20128;-86
2023/07/15 10:56:48;;;;;;;4.20;3.85;;;;;;;29.44;87.61;99689.09;5071616;28;20442;-85
2023/07/15 10:59:14;;;;;;;6.82;4.13;;;;;;;29.46;88.68;99682.31;5070869;28;20024;-86
2023/07/15 11:01:40;;;;;;;12.00;4.10;;;;;;;29.51;85.40;99695.13;5071286;28;20032;-86
2023/07/15 11:04:06;;;;;;;5.88;4.35;;;;;;;29.52;85.60;99688.59;5070914;28;20024;-85
2023/07/15 11:06:35;;;;;;;8.13;4.78;;;;;;;29.54;84.06;99684.53;5071984;28;20302;-86
2023/07/15 11:09:14;;;;;;;6.05;4.00;;;;;;;29.61;85.94;99689.75;5069698;28;20460;-85
2023/07/15 11:11:39;;;;;;;7.10;5.07;;;;;;;29.63;84.77;99691.09;5072067;28;20055;-86
2023/07/15 11:14:05;;;;;;;9.23;4.05;;;;;;;29.63;85.42;99685.66;5070966;28;20861;-84
2023/07/15 11:16:35;;;;;;;7.05;4.20;;;;;;;29.64;86.80;99684.59;5071693;28;20460;-85
2023/07/15 11:19:01;;;;;;;3.88;3.55;;;;;;;29.73;86.84;99668.59;5070688;28;20122;-86
2023/07/15 11:21:26;;;;;;;7.47;3.92;;;;;;;29.80;85.50;99671.91;5071355;28;20024;-86
2023/07/15 11:23:52;;;;;;;7.50;3.88;;;;;;;29.84;86.82;99670.28;5071046;28;20029;-84
2023/07/15 11:26:17;;;;;;;4.95;4.55;;;;;;;29.90;86.89;99671.09;5071330;28;20546;-86
2023/07/15 11:28:50;;;;;;;4.80;4.30;;;;;;;29.93;85.69;99670.59;5071098;28;20144;-85
2023/07/15 11:31:15;;;;;;;5.80;4.20;;;;;;;29.99;85.84;99664.09;5067174;28;20476;-85
2023/07/15 11:33:40;;;;;;;4.63;4.20;;;;;;;30.01;86.05;99670.91;5073401;28;20068;-84
2023/07/15 11:36:06;;;;;;;6.05;3.85;;;;;;;30.03;85.98;99660.59;5071711;28;20159;-84
2023/07/15 11:38:33;;;;;;;7.07;4.53;;;;;;;30.04;85.79;99655.97;5069680;28;20025;-86
2023/07/15 11:40:59;;;;;;;6.78;4.30;;;;;;;30.07;86.42;99667.13;5070217;28;20089;-85
2023/07/15 11:43:27;;;;;;;5.40;4.30;;;;;;;30.11;86.41;99659.22;5071233;28;20407;-85
2023/07/15 11:45:56;;;;;;;;;;;;;;;30.16;86.13;99661.16;5070302;28;19920;-85
2023/07/15 11:48:22;;;;;;;;;;;;;;;30.15;85.71;99657.63;5071076;28;19964;-86
2023/07/15 11:50:48;;;;;;;;;;;;;;;30.15;86.25;99660.34;5070718;28;20315;-85
2023/07/15 11:53:29;;;;;;;;;;;;;;;30.16;86.63;99653.78;5071142;28;19928;-85
2023/07/15 11:55:54;;;;;;;;;;;;;;;30.25;85.00;99648.66;5069484;28;19920;-85
2023/07/15 11:58:39;;;;;;;;;;;;;;;30.34;84.97;99645.13;5069039;28;19981;-84
2023/07/15 12:01:10;;;;;;;;;;;;;;;30.54;82.75;99649.00;5069278;28;20018;-84
2023/07/15 12:03:35;;;;;;;;;;;;;;;30.63;80.75;99652.84;5070730;28;19920;-85
2023/07/15 12:06:01;;;;;;;;;;;;;;;30.68;79.50;99644.66;5070441;28;19974;-85
2023/07/15 12:08:26;;;;;;;;;;;;;;;30.74;79.05;99643.56;5069402;28;20012;-85
2023/07/15 12:10:54;;;;;;;;;;;;;;;30.86;79.96;99649.56;5070236;28;19971;-85
2023/07/15 12:13:19;;;;;;;;;;;;;;;30.99;79.53;99646.25;5070447;28;19970;-85
2023/07/15 12:15:45;;;;;;;;;;;;;;;31.16;78.98;99646.81;5070610;28;19920;-85
2023/07/15 12:18:10;;;;;;;;;;;;;;;31.25;80.13;99631.56;5068250;28;19925;-83
2023/07/15 12:20:35;;;;;;;;;;;;;;;31.43;80.28;99629.31;5070105;28;20348;-84
2023/07/15 12:23:00;;;;;;;;;;;;;;;31.60;79.33;99619.75;5069832;28;19927;-85